createdAt,value
2022-10-02T00:01:33.547Z,48.136
2022-10-02T00:16:36.160Z,48.846
2022-10-02T00:31:38.685Z,50.862
2022-10-02T00:46:41.113Z,52.072
2022-10-02T01:01:43.520Z,54.23
2022-10-02T01:16:45.855Z,55.15
2022-10-02T01:31:48.239Z,55.507
2022-10-02T01:46:50.555Z,55.415
2022-10-02T02:01:52.886Z,58.611
2022-10-02T02:16:55.335Z,57.768
2022-10-02T02:31:57.959Z,57.644
2022-10-02T02:47:00.278Z,58.912
2022-10-02T03:02:02.749Z,59.274
2022-10-02T03:17:05.078Z,61.004
2022-10-02T03:32:07.366Z,61.281
2022-10-02T03:47:09.675Z,62.376
2022-10-02T04:02:11.927Z,64.589
2022-10-02T04:17:14.240Z,62.429
2022-10-02T04:32:16.541Z,63.763
2022-10-02T04:47:18.842Z,63.884
2022-10-02T05:02:21.304Z,63.889
2022-10-02T05:17:23.657Z,65.14
2022-10-02T05:32:25.965Z,64.181
2022-10-02T05:47:28.395Z,64.561
2022-10-02T06:02:32.646Z,64.383
2022-10-02T06:17:38.059Z,66.541
2022-10-02T06:32:40.580Z,65.708
2022-10-02T06:47:43.023Z,65.935
2022-10-02T07:02:45.357Z,65.507
2022-10-02T07:17:47.668Z,65.036
2022-10-02T07:32:49.920Z,64.703
2022-10-02T07:47:52.182Z,66.105
2022-10-02T08:02:54.664Z,66.891
2022-10-02T08:18:03.842Z,66.176
2022-10-02T08:33:19.194Z,67.463
2022-10-02T08:48:21.556Z,66.546
2022-10-02T09:03:23.862Z,64.103
2022-10-02T09:18:26.161Z,64.552
2022-10-02T09:33:28.457Z,66.465
2022-10-02T09:48:30.710Z,65.329
2022-10-02T10:03:33.054Z,66.706
2022-10-02T10:18:35.369Z,65.857
2022-10-02T10:33:37.745Z,66.232
2022-10-02T10:48:40.015Z,64.356
2022-10-02T11:03:42.481Z,73.031
2022-10-02T11:18:44.774Z,69.119
2022-10-02T11:33:47.030Z,71.29
2022-10-02T11:48:49.483Z,65.821
2022-10-02T12:03:51.821Z,67.947
2022-10-02T12:18:54.155Z,65.389
2022-10-02T12:33:56.871Z,65.032
2022-10-02T12:48:59.328Z,66.737
2022-10-02T13:04:01.623Z,65.34
2022-10-02T13:19:03.982Z,66.68
2022-10-02T13:34:06.290Z,65.495
2022-10-02T13:49:08.568Z,67.88
2022-10-02T14:04:11.038Z,68.057
2022-10-02T14:19:13.383Z,67.034
2022-10-02T14:34:15.763Z,69.457
2022-10-02T14:49:18.105Z,70.045
2022-10-02T15:04:20.436Z,73.817
2022-10-02T15:19:22.789Z,73.295
2022-10-02T15:34:25.272Z,69.611
2022-10-02T15:49:27.724Z,70.659
2022-10-02T16:04:30.063Z,67.848
2022-10-02T16:19:32.402Z,68.142
2022-10-02T16:34:34.694Z,56.649
2022-10-02T16:49:37.057Z,61.138
2022-10-02T17:04:39.324Z,59.764
2022-10-02T17:19:41.561Z,61.081
2022-10-02T17:34:43.860Z,60.381
2022-10-02T17:49:46.175Z,59.451
2022-10-02T18:04:48.439Z,58.425
2022-10-02T18:19:50.724Z,57.253
2022-10-02T18:34:53.158Z,56.076
2022-10-02T18:49:55.426Z,54.415
2022-10-02T19:04:57.753Z,53.55
2022-10-02T19:20:00.043Z,52.342
2022-10-02T19:35:02.363Z,50.424
2022-10-02T19:50:04.731Z,48.31
2022-10-02T20:05:07.013Z,45.637
2022-10-02T20:20:09.392Z,41.36
2022-10-02T20:35:11.714Z,42.783
2022-10-02T20:50:13.983Z,42.369
2022-10-02T21:05:16.291Z,41.77
2022-10-02T21:20:27.835Z,39.714
2022-10-02T21:35:36.098Z,39.93
2022-10-02T21:50:38.576Z,39.013
2022-10-02T22:05:40.945Z,39.162
2022-10-02T22:20:43.270Z,38.073
2022-10-02T22:35:45.597Z,36.345
2022-10-02T22:50:47.935Z,37.297
2022-10-02T23:05:50.236Z,38.524
2022-10-02T23:20:52.726Z,39.391
2022-10-02T23:35:55.040Z,42.52
2022-10-02T23:50:57.319Z,42.289
